Golden Triangle Regional Airport
KGTR : now visible

Airfield :











YOU CAN JOIN US ON...

 
LOGIN :

Register | Disclaimer

   EN    FR    IT 

 









Legend :    VFR   Marginal VFR   IFR   Intensive IFR   Very Intensive IFR
Visi :
Ceiling :
>= 8 km
>= 3000ft
5 to 8 km
1000 to 3000 ft
1500m to 5 km
500 to 1000 ft
800 to 1500m
200 to 500 ft
< 800m
< 200 ft
Symbols :   Thunderstorms  Fog  Heavy snow  Heavy precipitations  Wind > 20 kt






- Airport Elevation : 264 ft


KGTR - Golden Triangle Regional

CURRENT METAR :
  • 261728Z 29010G18KT 10SM FEW022 SCT028 BKN041 10/05 A3007 RMK AO2

EXPIRED METARs :
  • 261718Z 30012G16KT 10SM SCT020 BKN027 BKN039 09/05 A3007 RMK AO2
  • 261703Z 32012G15KT 10SM FEW017 SCT028 BKN039 10/06 A3007 RMK AO2
  • 261656Z 29009G16KT 10SM SCT017 BKN028 BKN039 09/06 A3007 RMK AO2 SLP192 T00890056
  • 261556Z 31009KT 10SM BKN015 BKN020 BKN070 08/06 A3008 RMK AO2 SLP194 T00830061
  • 261527Z 30005KT 10SM BKN015 08/06 A3007 RMK AO2
  • 261456Z 31008KT 10SM SCT010 BKN014 BKN080 08/07 A3006 RMK AO2 RAE45 SLP186 P0000 60000 T00780067 50009

TAF KGTR
Valid from the 26 at 18:00 until the 27 at 18:00 UTC


261726Z 2618/2718 31013G20KT P6SM BKN020
FM262100 31014G21KT P6SM BKN050
FM270500 32005KT P6SM SKC



MET'MAP, your aeronautical weather chart ! - Copyright ORBIFLY December 2007 - Disclaimer

ORBIFLY MET'MAP TEAM :

Programming & Development : Alexandra Zaïnal
Concept & original design : Baudouin d'Aumeries
Assistance for programming : Marc-Olivier Méhu
Technical & hardware support : Manuel Goepfert

Contact : metmap@orbifly.com




SOURCES & CREDITS :

   NOAA       Earth
Advisory